Terminal Aerodrome Forecast
Issued by NWS Charleston, WV

Current Version | Previous Version | Graphics & Text | Print | Product List | Glossary On
Versions: 1 2 3 4 5 6 7 8 9 10 11 12 13 14 15 16 17 18 19 20 21 22 23
680
FTUS41 KRLX 272358 CCA
TAFHTS
TAF COR
KHTS 272358Z 2800/2824 16003KT P6SM BKN050
      TEMPO 2801/2804 3SM TSRA SCT025 OVC040CB
     FM280500 24004KT 4SM SHRA OVC030
     FM280800 VRB03KT 5SM SHRA OVC020
     FM281100 25005KT P6SM OVC025
     FM281800 32008KT P6SM BKN035=

USA.gov is the U.S. government's official web portal to all federal, state and local government web resources and services.